Time;durP1;ratioP1;P1;durP2;ratioP2;P2;SDS_P1;SDS_P2;PMS_P1;PMS_P2;Temp;Humidity;BMP_temperature;BMP_pressure;BME280_temperature;BME280_humidity;BME280_pressure;Samples;Min_cycle;Max_cycle;Signal;HPM_P1;HPM_P2
2023/02/09 00:01:05;;;;;;;12.43;5.10;;;1.50;60.70;;;;;;5108389;28;20417;-77
2023/02/09 00:03:31;;;;;;;9.73;4.03;;;1.40;60.80;;;;;;5074442;28;20028;-78
2023/02/09 00:06:06;;;;;;;9.70;4.47;;;1.40;60.80;;;;;;5075050;28;20025;-78
2023/02/09 00:08:32;;;;;;;10.30;4.60;;;1.40;61.10;;;;;;5073634;28;20045;-77
2023/02/09 00:10:58;;;;;;;10.07;4.90;;;1.40;61.20;;;;;;5090533;28;20127;-76
2023/02/09 00:13:25;;;;;;;12.00;4.17;;;1.30;61.40;;;;;;5108204;28;20166;-77
2023/02/09 00:15:56;;;;;;;10.83;4.90;;;1.30;61.50;;;;;;5090249;28;20474;-77
2023/02/09 00:18:24;;;;;;;9.73;4.07;;;1.30;61.60;;;;;;5107768;28;20105;-77
2023/02/09 00:21:05;;;;;;;11.80;5.13;;;1.30;61.40;;;;;;5073528;28;20029;-78
2023/02/09 00:23:33;;;;;;;10.87;4.27;;;1.30;61.40;;;;;;5075116;28;20494;-77
2023/02/09 00:26:00;;;;;;;10.60;4.30;;;1.20;61.40;;;;;;5073588;28;20469;-77
2023/02/09 00:28:27;;;;;;;12.47;4.83;;;1.20;61.40;;;;;;5073927;28;20032;-77
2023/02/09 00:30:53;;;;;;;11.80;4.80;;;1.20;61.60;;;;;;5073550;28;20021;-77
2023/02/09 00:33:18;;;;;;;9.30;4.23;;;1.10;61.70;;;;;;5073363;28;20039;-77
2023/02/09 00:35:44;;;;;;;15.33;4.63;;;1.10;62.00;;;;;;5106932;28;20037;-78
2023/02/09 00:38:12;;;;;;;11.30;4.30;;;1.10;62.30;;;;;;5073376;28;20115;-77
2023/02/09 00:40:39;;;;;;;11.13;4.77;;;1.10;62.50;;;;;;5074940;28;20028;-78
2023/02/09 00:43:05;;;;;;;10.13;4.87;;;1.00;62.90;;;;;;5106882;28;20031;-77
2023/02/09 00:45:30;;;;;;;8.63;4.17;;;1.00;63.10;;;;;;5073552;28;20024;-77
2023/02/09 00:47:57;;;;;;;12.43;4.80;;;1.00;63.20;;;;;;5090152;28;20067;-77
2023/02/09 00:50:23;;;;;;;10.47;4.30;;;0.90;63.40;;;;;;5073377;28;20016;-77
2023/02/09 00:52:49;;;;;;;10.80;4.40;;;0.90;63.50;;;;;;5106661;28;20059;-77
2023/02/09 00:55:15;;;;;;;11.43;4.47;;;0.90;63.70;;;;;;5072113;28;20537;-77
2023/02/09 00:57:41;;;;;;;13.13;5.30;;;0.80;63.80;;;;;;5089848;28;20024;-77
2023/02/09 01:00:08;;;;;;;20.40;4.20;;;0.80;63.90;;;;;;5089895;28;20032;-77
2023/02/09 01:02:34;;;;;;;11.50;4.93;;;0.80;64.10;;;;;;5073052;28;20028;-77
2023/02/09 01:04:59;;;;;;;11.23;4.63;;;0.80;64.30;;;;;;5089801;28;20052;-78
2023/02/09 01:07:25;;;;;;;12.43;4.80;;;0.70;64.20;;;;;;5089087;28;20122;-77
2023/02/09 01:09:51;;;;;;;10.47;4.37;;;0.70;64.30;;;;;;5072755;28;20024;-77
2023/02/09 01:12:16;;;;;;;10.83;4.10;;;0.70;64.30;;;;;;5106755;28;20074;-77
2023/02/09 01:14:42;;;;;;;11.37;4.63;;;0.70;64.30;;;;;;5072427;28;20476;-77
2023/02/09 01:17:08;;;;;;;10.17;4.23;;;0.60;64.20;;;;;;5106391;28;20052;-77
2023/02/09 01:19:34;;;;;;;11.07;4.67;;;0.60;64.30;;;;;;5106753;28;20033;-77
2023/02/09 01:22:00;;;;;;;11.23;5.13;;;0.60;64.50;;;;;;5106265;28;20059;-77
2023/02/09 01:24:26;;;;;;;10.97;4.47;;;0.50;64.50;;;;;;5072559;28;20032;-77
2023/02/09 01:26:51;;;;;;;12.50;5.03;;;0.50;64.90;;;;;;5089070;28;20024;-78
2023/02/09 01:29:19;;;;;;;12.23;4.80;;;0.40;65.20;;;;;;5089710;28;20025;-77
2023/02/09 01:31:45;;;;;;;10.70;4.53;;;0.50;65.20;;;;;;5072400;28;20036;-77
2023/02/09 01:34:13;;;;;;;12.60;4.83;;;0.50;65.20;;;;;;5073742;28;20024;-77
2023/02/09 01:36:39;;;;;;;10.67;4.20;;;0.50;65.20;;;;;;5072105;28;20484;-77
2023/02/09 01:39:04;;;;;;;9.13;4.33;;;0.40;65.40;;;;;;5073922;28;20031;-77
2023/02/09 01:41:31;;;;;;;10.50;4.27;;;0.50;65.30;;;;;;5106390;28;20028;-77
2023/02/09 01:44:02;;;;;;;13.27;5.00;;;0.50;65.30;;;;;;5073310;28;20024;-77
2023/02/09 01:46:34;;;;;;;10.77;4.30;;;0.50;65.30;;;;;;5073432;28;20056;-77
2023/02/09 01:49:08;;;;;;;10.83;4.10;;;0.50;65.20;;;;;;5072073;28;20111;-80
2023/02/09 01:51:40;;;;;;;10.57;4.37;;;0.50;65.00;;;;;;5073552;28;20154;-77
2023/02/09 01:54:12;;;;;;;10.77;4.57;;;0.50;65.10;;;;;;5072079;28;20472;-77
2023/02/09 01:56:41;;;;;;;11.23;4.17;;;0.50;65.20;;;;;;5105875;28;20392;-77
2023/02/09 01:59:08;;;;;;;9.93;3.97;;;0.50;65.10;;;;;;5073597;28;20377;-77
2023/02/09 02:01:34;;;;;;;9.00;4.23;;;0.50;65.00;;;;;;5088459;28;20033;-77
2023/02/09 02:04:00;;;;;;;11.70;5.27;;;0.50;64.90;;;;;;5105784;28;20023;-78
2023/02/09 02:06:25;;;;;;;10.70;4.50;;;0.50;64.80;;;;;;5088161;28;20024;-77
2023/02/09 02:09:04;;;;;;;12.03;5.17;;;0.50;65.00;;;;;;5071515;28;20017;-77
2023/02/09 02:11:31;;;;;;;10.00;4.40;;;0.50;64.90;;;;;;5073189;28;20020;-77
2023/02/09 02:13:57;;;;;;;10.83;4.53;;;0.50;64.80;;;;;;5088131;28;20017;-77
2023/02/09 02:16:35;;;;;;;12.20;4.57;;;0.50;65.40;;;;;;5071537;28;20053;-77
2023/02/09 02:19:30;;;;;;;9.23;3.97;;;0.50;64.70;;;;;;5073077;28;20102;-77
2023/02/09 02:22:01;;;;;;;11.07;4.50;;;0.50;64.60;;;;;;5105587;28;20043;-77
2023/02/09 02:25:07;;;;;;;15.40;4.47;;;0.40;64.60;;;;;;5105322;28;20298;-77
2023/02/09 02:27:55;;;;;;;11.70;4.60;;;0.40;64.70;;;;;;5071772;28;20023;-77
2023/02/09 02:30:42;;;;;;;13.87;4.30;;;0.40;64.90;;;;;;5105572;28;20419;-77
2023/02/09 02:33:36;;;;;;;12.27;5.23;;;0.40;65.20;;;;;;5105099;28;20032;-77
2023/02/09 02:36:24;;;;;;;10.17;4.07;;;0.30;65.10;;;;;;5105071;28;20036;-77
2023/02/09 02:39:18;;;;;;;9.77;4.17;;;0.30;65.00;;;;;;5071697;28;20055;-77
2023/02/09 02:45:27;;;;;;;11.97;4.67;;;0.30;65.40;;;;;;5072953;28;20109;-77
2023/02/09 02:48:09;;;;;;;10.57;4.30;;;0.30;65.50;;;;;;5064230;28;20107;-77
2023/02/09 02:50:43;;;;;;;9.27;3.47;;;0.30;65.50;;;;;;5072984;28;20028;-77
2023/02/09 02:53:11;;;;;;;11.23;4.10;;;0.20;65.40;;;;;;5071393;28;20058;-77
2023/02/09 02:55:38;;;;;;;11.30;4.37;;;0.20;65.40;;;;;;5104748;28;20306;-77
2023/02/09 02:58:08;;;;;;;12.07;4.27;;;0.20;65.40;;;;;;5105585;28;20275;-77
2023/02/09 03:00:40;;;;;;;11.47;4.77;;;0.20;65.60;;;;;;5071395;28;20032;-77
2023/02/09 03:03:15;;;;;;;11.10;4.43;;;0.20;65.60;;;;;;5071552;28;20313;-77
2023/02/09 03:05:42;;;;;;;8.70;4.13;;;0.20;65.50;;;;;;5072179;28;20024;-77
2023/02/09 03:08:07;;;;;;;9.80;4.17;;;0.20;65.60;;;;;;5114562;28;20095;-77
2023/02/09 03:10:35;;;;;;;12.03;5.20;;;0.20;65.60;;;;;;5073341;28;20378;-78
2023/02/09 03:13:10;;;;;;;10.53;4.27;;;0.20;65.50;;;;;;5091163;28;20024;-77
2023/02/09 03:16:08;;;;;;;10.13;4.13;;;0.20;65.40;;;;;;5091750;28;20297;-77
2023/02/09 03:19:10;;;;;;;10.67;4.50;;;0.10;65.30;;;;;;5090196;28;20294;-77
2023/02/09 03:21:57;;;;;;;10.10;4.40;;;0.10;65.30;;;;;;5094563;28;20365;-77
2023/02/09 03:24:42;;;;;;;8.27;3.80;;;0.10;65.20;;;;;;5096179;28;20399;-77
2023/02/09 03:27:25;;;;;;;11.30;4.40;;;0.10;65.30;;;;;;5094953;28;20314;-77
2023/02/09 03:29:56;;;;;;;9.50;4.00;;;0.00;65.40;;;;;;5095141;28;20101;-77
2023/02/09 03:32:22;;;;;;;13.10;4.53;;;0.00;65.50;;;;;;5094770;28;20270;-77
2023/02/09 03:34:48;;;;;;;11.50;4.20;;;0.00;66.30;;;;;;5077920;28;20328;-77
2023/02/09 03:37:14;;;;;;;12.40;4.37;;;0.10;65.70;;;;;;5094254;28;20309;-77
2023/02/09 03:39:40;;;;;;;11.77;4.80;;;-0.10;65.70;;;;;;5094813;28;20690;-77
2023/02/09 03:42:06;;;;;;;9.37;4.20;;;-0.10;65.90;;;;;;5078655;28;20036;-77
2023/02/09 03:44:31;;;;;;;11.70;4.80;;;0.00;65.90;;;;;;5095989;28;20414;-77
2023/02/09 03:47:03;;;;;;;11.53;4.77;;;-0.10;66.10;;;;;;5077658;28;20024;-77
2023/02/09 03:49:34;;;;;;;13.60;5.20;;;0.00;66.10;;;;;;5095916;28;20051;-77
2023/02/09 03:52:01;;;;;;;10.53;4.37;;;-0.10;66.00;;;;;;5095909;28;20281;-77
2023/02/09 03:54:30;;;;;;;12.13;5.10;;;-0.10;66.00;;;;;;5095956;28;20620;-77
2023/02/09 03:56:57;;;;;;;10.83;5.17;;;-0.10;65.90;;;;;;5095832;28;20313;-77
2023/02/09 03:59:27;;;;;;;12.23;5.40;;;0.00;66.10;;;;;;5095990;28;20031;-77
2023/02/09 04:01:57;;;;;;;11.27;5.43;;;0.00;65.90;;;;;;5094134;28;20274;-77
2023/02/09 04:04:23;;;;;;;12.27;4.70;;;0.00;66.50;;;;;;5094221;28;20373;-77
2023/02/09 04:06:49;;;;;;;12.90;5.50;;;0.10;66.40;;;;;;5093824;28;20278;-77
2023/02/09 04:09:15;;;;;;;11.50;5.20;;;0.10;66.40;;;;;;5094316;28;20285;-77
2023/02/09 04:11:41;;;;;;;14.60;5.17;;;0.00;66.10;;;;;;5095524;28;20504;-77
2023/02/09 04:14:10;;;;;;;11.70;5.40;;;0.10;66.00;;;;;;5095463;28;20310;-77
2023/02/09 04:16:36;;;;;;;13.03;5.13;;;0.10;66.00;;;;;;5077619;28;20063;-78
2023/02/09 04:19:03;;;;;;;16.63;5.10;;;0.10;66.20;;;;;;5076900;28;20468;-77
2023/02/09 04:21:28;;;;;;;12.30;5.27;;;0.00;66.00;;;;;;5094327;28;20036;-77
2023/02/09 04:23:54;;;;;;;12.80;5.30;;;0.00;66.00;;;;;;5094484;28;20285;-78
2023/02/09 04:26:19;;;;;;;12.30;5.43;;;0.00;66.10;;;;;;5077234;28;20105;-78
2023/02/09 04:28:45;;;;;;;11.07;5.07;;;0.10;66.30;;;;;;5093409;28;20040;-78
2023/02/09 04:31:11;;;;;;;13.27;4.77;;;0.10;66.80;;;;;;5093755;28;20028;-77
2023/02/09 04:33:37;;;;;;;10.20;4.63;;;0.10;66.00;;;;;;5094024;28;20032;-77
2023/02/09 04:36:03;;;;;;;13.17;4.70;;;0.10;66.00;;;;;;5093450;28;20064;-77
2023/02/09 04:38:29;;;;;;;11.40;5.27;;;0.10;66.00;;;;;;5094775;28;20024;-77
2023/02/09 04:40:58;;;;;;;11.47;5.10;;;0.10;65.90;;;;;;5076810;28;20270;-77
2023/02/09 04:43:24;;;;;;;10.40;4.20;;;0.10;65.90;;;;;;5094732;28;20426;-77
2023/02/09 04:45:49;;;;;;;13.13;4.97;;;0.20;65.90;;;;;;5093340;28;20028;-77
2023/02/09 04:48:17;;;;;;;15.53;5.73;;;0.10;66.00;;;;;;5093478;28;20547;-77
2023/02/09 04:50:44;;;;;;;12.17;4.93;;;0.00;66.30;;;;;;5093390;28;20028;-77
2023/02/09 04:53:10;;;;;;;12.30;5.67;;;0.10;66.20;;;;;;5093519;28;20270;-77
2023/02/09 04:55:37;;;;;;;11.43;5.17;;;0.10;66.30;;;;;;5093638;28;20384;-77
2023/02/09 05:00:47;;;;;;;12.57;6.28;;;0.10;66.20;;;;;;5094617;28;20374;-77
2023/02/09 05:03:13;;;;;;;13.80;5.53;;;0.10;66.60;;;;;;5077033;28;20111;-77
2023/02/09 05:05:40;;;;;;;12.00;5.20;;;0.10;66.50;;;;;;5093746;28;20030;-77
2023/02/09 05:08:06;;;;;;;13.37;5.43;;;0.10;66.40;;;;;;5093659;28;20016;-77
2023/02/09 05:10:32;;;;;;;11.93;5.13;;;0.10;66.30;;;;;;5093883;28;20028;-77
2023/02/09 05:12:57;;;;;;;11.70;4.97;;;0.10;66.70;;;;;;5093353;28;20032;-77
2023/02/09 05:15:23;;;;;;;11.83;5.20;;;0.00;66.60;;;;;;5092963;28;20032;-77
2023/02/09 05:17:49;;;;;;;12.53;5.23;;;0.10;66.40;;;;;;5092987;28;20078;-77
2023/02/09 05:20:15;;;;;;;12.30;5.10;;;0.10;66.40;;;;;;5076142;28;20028;-77
2023/02/09 05:22:40;;;;;;;14.93;5.63;;;0.10;66.40;;;;;;5092919;28;20028;-77
2023/02/09 05:25:06;;;;;;;10.87;4.73;;;0.10;66.50;;;;;;5075963;28;20024;-77
2023/02/09 05:27:31;;;;;;;13.90;5.57;;;0.00;66.40;;;;;;5076156;28;20570;-77
2023/02/09 05:29:57;;;;;;;13.53;5.90;;;0.00;66.40;;;;;;5092850;28;20505;-77
2023/02/09 05:32:23;;;;;;;14.87;5.73;;;0.00;66.60;;;;;;5076288;28;20410;-77
2023/02/09 05:34:48;;;;;;;11.20;5.37;;;0.00;66.80;;;;;;5092927;28;20024;-77
2023/02/09 05:37:14;;;;;;;11.23;5.40;;;-0.10;66.60;;;;;;5075485;28;20499;-77
2023/02/09 05:39:40;;;;;;;11.37;4.80;;;0.00;66.70;;;;;;5092187;28;20028;-77
2023/02/09 05:42:14;;;;;;;12.67;5.13;;;0.00;66.60;;;;;;5091594;28;20065;-77
2023/02/09 05:44:48;;;;;;;11.97;5.07;;;-0.10;66.50;;;;;;5076951;28;20114;-77
2023/02/09 05:47:16;;;;;;;;;;;-0.10;67.10;;;;;;5092920;28;20020;-77
2023/02/09 05:49:41;;;;;;;12.87;5.10;;;-0.10;67.20;;;;;;5095445;28;19904;-77
2023/02/09 05:52:08;;;;;;;12.23;5.33;;;-0.10;67.50;;;;;;5092323;28;20024;-77
2023/02/09 05:54:34;;;;;;;14.33;5.73;;;-0.10;67.40;;;;;;5074088;28;20025;-77
2023/02/09 05:57:00;;;;;;;12.93;6.00;;;-0.10;67.60;;;;;;5114801;27;20487;-77
2023/02/09 05:59:26;;;;;;;12.10;5.70;;;-0.10;67.60;;;;;;5083635;28;20028;-77
2023/02/09 06:01:51;;;;;;;16.03;5.67;;;0.00;67.30;;;;;;5090625;28;20055;-77
2023/02/09 06:04:17;;;;;;;11.03;4.90;;;-0.10;67.40;;;;;;5064581;28;20487;-77
2023/02/09 06:06:43;;;;;;;11.07;4.73;;;-0.10;67.10;;;;;;5083338;28;20024;-77
2023/02/09 06:09:09;;;;;;;16.87;6.17;;;-0.10;67.20;;;;;;5073356;28;20028;-76
2023/02/09 06:11:35;;;;;;;13.43;5.00;;;-0.10;67.40;;;;;;5076891;28;20028;-77
2023/02/09 06:14:00;;;;;;;12.13;5.33;;;-0.10;67.10;;;;;;5090529;28;20117;-77
2023/02/09 06:16:26;;;;;;;12.77;5.20;;;-0.10;67.70;;;;;;5077620;28;20074;-77
2023/02/09 06:18:52;;;;;;;14.40;5.57;;;-0.10;67.00;;;;;;5086775;28;20031;-77
2023/02/09 06:21:18;;;;;;;13.83;4.87;;;0.00;67.10;;;;;;5085812;28;20502;-77
2023/02/09 06:23:44;;;;;;;12.43;4.87;;;0.00;67.10;;;;;;5090484;28;20154;-77
2023/02/09 06:26:12;;;;;;;13.27;5.10;;;0.00;67.10;;;;;;5089607;28;20476;-77
2023/02/09 06:28:38;;;;;;;12.27;5.47;;;-0.10;67.00;;;;;;5087056;28;20023;-77
2023/02/09 06:31:05;;;;;;;11.00;4.83;;;-0.10;67.10;;;;;;5069359;28;20032;-77
2023/02/09 06:33:31;;;;;;;15.23;4.83;;;0.00;67.30;;;;;;5087673;28;20020;-77
2023/02/09 06:35:57;;;;;;;15.27;5.87;;;0.00;67.20;;;;;;5089705;28;20773;-77
2023/02/09 06:38:23;;;;;;;13.30;5.37;;;-0.10;67.30;;;;;;5069652;28;20320;-77
2023/02/09 06:40:49;;;;;;;11.80;4.80;;;-0.10;67.50;;;;;;5092266;28;20367;-77
2023/02/09 06:43:14;;;;;;;14.50;5.23;;;-0.10;67.40;;;;;;5085107;28;20027;-77
2023/02/09 06:45:40;;;;;;;10.80;5.30;;;-0.10;67.60;;;;;;5091961;28;20380;-77
2023/02/09 06:48:07;;;;;;;11.37;4.63;;;-0.10;67.80;;;;;;5070770;28;20683;-77
2023/02/09 06:50:35;;;;;;;11.27;5.53;;;-0.10;67.50;;;;;;5073834;28;20028;-80
2023/02/09 06:53:01;;;;;;;14.37;6.07;;;-0.10;67.60;;;;;;5076522;28;20335;-80
2023/02/09 06:55:26;;;;;;;10.20;4.40;;;-0.10;67.70;;;;;;5095843;28;20301;-78
2023/02/09 06:57:53;;;;;;;11.70;5.10;;;-0.10;67.70;;;;;;5078852;28;20278;-77
2023/02/09 07:00:20;;;;;;;13.30;5.13;;;-0.20;67.70;;;;;;5095533;28;20031;-77
2023/02/09 07:02:46;;;;;;;11.80;5.47;;;-0.10;67.90;;;;;;5095521;28;20032;-77
2023/02/09 07:05:13;;;;;;;13.20;5.40;;;-0.10;67.90;;;;;;5095286;28;20704;-77
2023/02/09 07:07:39;;;;;;;11.50;6.23;;;-0.10;68.00;;;;;;5095402;28;20028;-77
2023/02/09 07:10:05;;;;;;;12.70;5.57;;;-0.10;67.80;;;;;;5095270;28;20287;-77
2023/02/09 07:12:31;;;;;;;15.53;5.87;;;-0.10;68.20;;;;;;5064977;28;20120;-77
2023/02/09 07:14:57;;;;;;;12.20;5.63;;;-0.10;68.00;;;;;;5109029;28;20310;-77
2023/02/09 07:17:22;;;;;;;11.10;5.13;;;-0.10;68.10;;;;;;5094638;28;20488;-77
2023/02/09 07:19:48;;;;;;;12.37;5.23;;;-0.10;68.00;;;;;;5077387;28;20038;-77
2023/02/09 07:22:14;;;;;;;13.10;5.67;;;0.00;68.20;;;;;;5094056;28;20039;-77
2023/02/09 07:24:40;;;;;;;13.10;5.97;;;0.00;68.10;;;;;;5094322;28;20527;-77
2023/02/09 07:27:06;;;;;;;11.33;4.70;;;0.00;68.00;;;;;;5095337;28;20074;-77
2023/02/09 07:29:32;;;;;;;12.90;5.00;;;0.00;68.00;;;;;;5094967;28;20031;-77
2023/02/09 07:31:58;;;;;;;17.10;6.10;;;0.00;68.10;;;;;;5095251;28;20282;-77
2023/02/09 07:34:24;;;;;;;13.97;5.63;;;0.00;68.10;;;;;;5078060;28;20034;-77
2023/02/09 07:36:50;;;;;;;12.83;5.37;;;0.10;68.10;;;;;;5094368;28;20068;-77
2023/02/09 07:39:16;;;;;;;10.93;5.13;;;0.10;68.20;;;;;;5094712;28;20499;-77
2023/02/09 07:41:42;;;;;;;12.57;5.70;;;0.10;68.10;;;;;;5096296;28;20024;-77
2023/02/09 07:44:10;;;;;;;13.33;5.23;;;0.10;68.00;;;;;;5095178;28;20380;-77
2023/02/09 07:46:36;;;;;;;11.93;5.17;;;0.10;68.10;;;;;;5078350;28;20480;-78
2023/02/09 07:49:02;;;;;;;14.00;5.80;;;0.30;68.30;;;;;;5094830;28;20023;-78
2023/02/09 07:51:28;;;;;;;11.63;5.40;;;0.20;68.10;;;;;;5077725;28;20274;-78
2023/02/09 07:53:55;;;;;;;11.67;5.73;;;0.40;68.30;;;;;;5094163;28;20468;-77
2023/02/09 07:56:22;;;;;;;13.90;5.23;;;0.30;68.20;;;;;;5077342;28;20044;-78
2023/02/09 07:58:48;;;;;;;13.30;6.33;;;0.30;68.30;;;;;;5094499;28;20438;-78
2023/02/09 08:01:14;;;;;;;13.57;5.67;;;0.40;68.30;;;;;;5095361;28;20054;-78
2023/02/09 08:03:43;;;;;;;16.63;6.83;;;0.40;68.10;;;;;;5094151;28;20455;-78
2023/02/09 08:06:27;;;;;;;15.20;5.90;;;0.60;68.50;;;;;;5094705;28;20054;-77
2023/02/09 08:08:53;;;;;;;;;;;0.60;68.10;;;;;;5096076;28;20103;-78
2023/02/09 08:11:34;;;;;;;14.97;6.03;;;0.60;68.20;;;;;;5111102;28;19999;-78
2023/02/09 08:14:04;;;;;;;13.87;5.53;;;0.60;68.00;;;;;;5128778;27;20024;-78
2023/02/09 08:16:33;;;;;;;14.03;5.73;;;0.60;68.00;;;;;;5095063;28;20441;-78
2023/02/09 08:19:09;;;;;;;13.83;6.03;;;0.80;68.10;;;;;;5093916;28;20030;-78
2023/02/09 08:21:40;;;;;;;14.43;6.87;;;0.60;68.00;;;;;;5094696;28;20078;-77
2023/02/09 08:24:07;;;;;;;15.90;6.30;;;0.80;68.20;;;;;;5094025;28;20074;-78
2023/02/09 08:26:34;;;;;;;12.90;6.53;;;0.90;68.30;;;;;;5094989;28;20028;-78
2023/02/09 08:29:00;;;;;;;16.77;6.60;;;0.80;68.20;;;;;;5094840;28;20376;-78
2023/02/09 08:31:26;;;;;;;16.43;7.00;;;0.90;68.40;;;;;;5094949;28;20016;-78
2023/02/09 08:33:52;;;;;;;14.87;7.17;;;1.00;68.60;;;;;;5076968;28;20028;-78
2023/02/09 08:36:18;;;;;;;15.37;6.63;;;1.00;68.50;;;;;;5094964;28;20036;-78
2023/02/09 08:38:45;;;;;;;15.27;6.53;;;1.00;68.30;;;;;;5093726;28;20114;-78
2023/02/09 08:41:13;;;;;;;19.73;8.10;;;1.10;68.30;;;;;;5093960;28;20570;-78
2023/02/09 08:43:39;;;;;;;14.67;7.30;;;1.10;68.30;;;;;;5093552;28;20029;-78
2023/02/09 08:46:08;;;;;;;14.93;7.63;;;1.20;68.20;;;;;;5076745;28;20730;-78
2023/02/09 08:48:35;;;;;;;16.77;7.70;;;1.30;68.30;;;;;;5095068;28;20020;-78
2023/02/09 08:51:01;;;;;;;14.57;7.20;;;1.30;68.10;;;;;;5093509;28;20383;-78
2023/02/09 08:53:27;;;;;;;21.37;7.03;;;1.30;68.10;;;;;;5093815;28;20032;-78
2023/02/09 08:55:53;;;;;;;14.77;7.37;;;1.40;68.10;;;;;;5076177;28;20036;-78
2023/02/09 08:58:19;;;;;;;18.23;7.83;;;1.40;68.10;;;;;;5076773;28;20059;-78
2023/02/09 09:00:45;;;;;;;18.03;8.07;;;1.50;67.90;;;;;;5076055;28;20108;-79
2023/02/09 09:03:10;;;;;;;15.27;7.43;;;1.60;67.80;;;;;;5076431;28;20036;-78
2023/02/09 09:05:37;;;;;;;15.37;7.53;;;1.60;67.70;;;;;;5075832;28;20032;-78
2023/02/09 09:08:03;;;;;;;14.83;6.77;;;1.70;67.70;;;;;;5093061;28;20036;-78
2023/02/09 09:10:29;;;;;;;15.87;7.83;;;1.80;67.60;;;;;;5092923;28;20020;-79
2023/02/09 09:12:54;;;;;;;16.93;6.93;;;1.90;67.50;;;;;;5092758;28;20028;-78
2023/02/09 09:15:20;;;;;;;20.83;7.47;;;2.00;67.40;;;;;;5092747;28;20028;-78
2023/02/09 09:17:46;;;;;;;16.70;8.23;;;2.00;67.10;;;;;;5093449;28;20508;-78
2023/02/09 09:20:12;;;;;;;15.47;7.43;;;2.20;67.10;;;;;;5092904;28;20035;-78
2023/02/09 09:22:38;;;;;;;19.27;8.17;;;2.20;67.10;;;;;;5092830;28;20039;-78
2023/02/09 09:25:04;;;;;;;14.30;6.57;;;2.30;67.10;;;;;;5075703;28;20028;-78
2023/02/09 09:27:36;;;;;;;16.00;7.90;;;2.40;67.20;;;;;;5092665;28;20047;-78
2023/02/09 09:30:04;;;;;;;17.07;7.20;;;2.50;67.10;;;;;;5093153;28;20540;-79
2023/02/09 09:32:30;;;;;;;16.73;7.77;;;2.70;67.20;;;;;;5093920;28;20020;-78
2023/02/09 09:34:57;;;;;;;15.23;7.33;;;2.80;67.00;;;;;;5092922;28;20031;-78
2023/02/09 09:37:25;;;;;;;16.33;7.97;;;2.90;66.60;;;;;;5092432;28;20407;-78
2023/02/09 09:39:51;;;;;;;20.00;7.47;;;3.10;66.60;;;;;;5092325;28;20024;-78
2023/02/09 09:42:39;;;;;;;15.33;7.37;;;3.10;66.30;;;;;;5092493;28;20028;-78
2023/02/09 09:45:11;;;;;;;14.33;7.37;;;3.20;66.10;;;;;;5092902;28;20028;-78
2023/02/09 09:47:40;;;;;;;15.70;7.90;;;3.20;66.10;;;;;;5092464;28;20066;-78
2023/02/09 09:50:23;;;;;;;19.87;7.87;;;3.30;66.00;;;;;;5092152;28;20016;-78
2023/02/09 09:52:53;;;;;;;17.03;7.83;;;3.40;65.90;;;;;;5092046;28;20020;-78
2023/02/09 09:55:26;;;;;;;17.73;8.43;;;3.50;65.30;;;;;;5093408;28;20031;-78
2023/02/09 09:57:53;;;;;;;16.57;8.40;;;3.60;65.30;;;;;;5093223;28;20121;-78
2023/02/09 10:00:24;;;;;;;16.17;8.70;;;3.60;65.10;;;;;;5092151;28;20027;-78
2023/02/09 10:02:50;;;;;;;14.50;7.07;;;3.90;65.10;;;;;;5092311;28;20617;-78
2023/02/09 10:05:19;;;;;;;20.47;7.80;;;3.90;65.10;;;;;;5092224;28;20024;-78
2023/02/09 10:07:54;;;;;;;21.07;7.00;;;4.00;64.80;;;;;;5091825;28;20102;-78
2023/02/09 10:10:45;;;;;;;14.67;7.80;;;4.20;64.90;;;;;;5125934;27;20028;-78
2023/02/09 10:13:33;;;;;;;16.73;7.60;;;4.50;64.70;;;;;;5093240;28;20527;-78
2023/02/09 10:15:59;;;;;;;14.20;7.50;;;4.80;64.00;;;;;;5091989;28;20082;-79
2023/02/09 10:18:25;;;;;;;13.23;7.53;;;5.00;64.30;;;;;;5074921;28;20076;-79
2023/02/09 10:21:00;;;;;;;13.73;6.70;;;5.30;64.40;;;;;;5109027;28;20088;-79
2023/02/09 10:23:48;;;;;;;15.73;7.30;;;5.70;64.50;;;;;;5091761;28;20027;-79
2023/02/09 10:26:25;;;;;;;13.23;7.00;;;6.10;64.90;;;;;;5091088;28;20044;-78
2023/02/09 10:28:53;;;;;;;11.40;6.43;;;6.70;64.00;;;;;;5091479;28;20468;-79
2023/02/09 10:31:34;;;;;;;12.20;6.27;;;7.00;63.80;;;;;;5091854;28;20601;-79
2023/02/09 10:34:08;;;;;;;13.60;7.40;;;7.50;63.20;;;;;;5091616;28;20107;-78
2023/02/09 10:36:48;;;;;;;18.77;7.88;;;7.80;62.00;;;;;;5091130;28;20032;-79
2023/02/09 10:39:18;;;;;;;13.27;7.47;;;8.10;60.40;;;;;;5093562;28;20357;-79
2023/02/09 10:41:47;;;;;;;15.50;7.53;;;8.40;59.70;;;;;;5091727;28;20016;-79
2023/02/09 10:44:23;;;;;;;14.02;7.53;;;8.80;59.40;;;;;;5091642;28;20150;-79
2023/02/09 10:47:07;;;;;;;15.68;7.47;;;9.10;58.00;;;;;;5091592;28;20031;-79
2023/02/09 10:49:35;;;;;;;13.70;7.47;;;9.40;57.20;;;;;;5091855;28;20017;-79
2023/02/09 10:52:10;;;;;;;16.35;7.97;;;9.50;56.60;;;;;;5092791;28;20024;-79
2023/02/09 10:54:40;;;;;;;12.82;7.38;;;9.80;56.50;;;;;;5125763;27;20111;-79
2023/02/09 10:57:21;;;;;;;16.23;8.23;;;10.00;55.30;;;;;;5091696;28;20040;-79
2023/02/09 10:59:55;;;;;;;15.55;8.25;;;10.10;54.80;;;;;;5125946;27;20047;-79
2023/02/09 11:02:46;;;;;;;15.35;7.55;;;10.20;54.10;;;;;;5092871;28;20020;-79
2023/02/09 11:05:21;;;;;;;14.82;7.18;;;10.40;54.00;;;;;;5084095;28;20118;-79
2023/02/09 11:08:10;;;;;;;15.38;7.72;;;10.70;53.60;;;;;;5092284;28;20077;-79
2023/02/09 11:10:42;;;;;;;15.52;8.45;;;10.90;52.40;;;;;;5125149;27;20016;-79
2023/02/09 11:13:21;;;;;;;13.95;8.02;;;11.00;51.90;;;;;;5091692;28;20115;-79
2023/02/09 11:16:17;;;;;;;13.95;8.52;;;10.90;51.10;;;;;;5091314;28;20506;-79
2023/02/09 11:18:50;;;;;;;12.85;7.85;;;10.80;50.60;;;;;;5125424;27;20507;-79
2023/02/09 11:21:25;;;;;;;18.23;7.35;;;10.80;50.90;;;;;;5092565;28;20028;-79
2023/02/09 11:24:00;;;;;;;14.88;7.97;;;10.90;51.20;;;;;;5125710;27;20056;-79
2023/02/09 11:26:36;;;;;;;13.48;8.43;;;10.90;51.00;;;;;;5125498;27;20543;-79
2023/02/09 11:29:36;;;;;;;13.88;8.60;;;10.90;50.60;;;;;;5092416;28;20027;-79
2023/02/09 11:32:15;;;;;;;17.05;8.32;;;10.90;50.10;;;;;;5092636;28;20073;-79
2023/02/09 11:35:00;;;;;;;14.95;7.50;;;10.80;49.60;;;;;;5092439;28;20456;-79
2023/02/09 11:37:28;;;;;;;;;;;10.70;49.50;;;;;;5125188;27;20044;-79
2023/02/09 11:40:18;;;;;;;15.82;9.35;;;10.50;49.70;;;;;;5093723;28;20390;-79
2023/02/09 11:43:09;;;;;;;14.48;8.68;;;10.30;49.40;;;;;;5128979;27;20476;-79
2023/02/09 11:45:49;;;;;;;16.37;8.97;;;10.00;50.00;;;;;;5096074;28;20468;-79
2023/02/09 11:48:24;;;;;;;16.83;8.80;;;9.80;50.10;;;;;;5096226;28;20486;-79
2023/02/09 11:51:06;;;;;;;15.53;8.70;;;9.60;50.50;;;;;;5128957;27;20027;-79
2023/02/09 11:53:57;;;;;;;16.43;8.87;;;9.50;50.80;;;;;;5096688;28;20402;-79
2023/02/09 11:56:24;;;;;;;15.60;8.97;;;9.50;50.90;;;;;;5131602;27;20450;-79
2023/02/09 11:58:56;;;;;;;15.80;8.63;;;9.50;51.20;;;;;;5097793;28;20027;-79
2023/02/09 12:01:27;;;;;;;16.43;9.20;;;9.60;52.00;;;;;;5097894;28;20110;-79
2023/02/09 12:04:08;;;;;;;16.33;9.00;;;9.60;51.20;;;;;;5128682;27;20193;-79
2023/02/09 12:06:41;;;;;;;19.20;10.07;;;9.60;51.40;;;;;;5128425;27;20024;-80
2023/02/09 12:09:14;;;;;;;16.58;10.27;;;9.60;51.30;;;;;;5094018;28;20484;-79
2023/02/09 12:11:44;;;;;;;15.00;9.70;;;9.50;51.30;;;;;;5095736;28;20031;-79
2023/02/09 12:14:22;;;;;;;18.57;10.33;;;9.50;51.70;;;;;;5128527;27;20414;-79
2023/02/09 12:16:57;;;;;;;15.73;9.67;;;9.50;51.70;;;;;;5094108;28;20063;-79
2023/02/09 12:19:35;;;;;;;16.07;9.33;;;9.50;51.80;;;;;;5094102;28;20052;-79
2023/02/09 12:22:32;;;;;;;19.30;10.80;;;9.40;52.10;;;;;;5093908;28;20043;-79
2023/02/09 12:25:16;;;;;;;17.93;10.47;;;9.40;52.10;;;;;;5095341;28;20031;-79
2023/02/09 12:28:02;;;;;;;17.38;10.30;;;9.40;52.20;;;;;;5094043;28;20121;-79
2023/02/09 12:30:43;;;;;;;14.20;8.50;;;9.40;52.30;;;;;;5093357;28;20115;-79
2023/02/09 12:33:22;;;;;;;16.93;9.60;;;9.50;52.40;;;;;;5095125;28;20032;-79
2023/02/09 12:36:06;;;;;;;15.70;10.27;;;9.50;52.60;;;;;;5127433;27;20047;-79
2023/02/09 12:38:50;;;;;;;15.57;9.50;;;9.60;52.70;;;;;;5093812;28;20030;-79
2023/02/09 12:41:22;;;;;;;16.92;9.35;;;9.60;52.70;;;;;;5128071;27;20119;-79
2023/02/09 12:43:49;;;;;;;17.87;10.47;;;9.70;52.80;;;;;;5127337;27;20127;-79
2023/02/09 12:46:44;;;;;;;20.63;11.33;;;9.70;52.90;;;;;;5093857;28;20077;-79
2023/02/09 12:49:13;;;;;;;20.67;11.07;;;9.70;53.10;;;;;;5093468;28;20062;-79
2023/02/09 12:51:54;;;;;;;18.90;11.47;;;9.60;53.10;;;;;;5094401;28;20038;-79
2023/02/09 12:54:55;;;;;;;20.30;11.63;;;9.50;53.30;;;;;;5093493;28;20024;-79
2023/02/09 12:57:21;;;;;;;20.63;10.30;;;9.30;53.50;;;;;;5093409;28;20517;-79
2023/02/09 12:59:54;;;;;;;17.53;10.27;;;9.20;53.60;;;;;;5093232;28;20024;-79
2023/02/09 13:02:28;;;;;;;19.60;9.73;;;9.10;53.90;;;;;;5093330;28;20024;-79
2023/02/09 13:05:26;;;;;;;19.77;11.17;;;9.20;54.10;;;;;;5094659;28;20150;-79
2023/02/09 13:08:15;;;;;;;17.17;9.73;;;9.40;54.30;;;;;;5094448;28;20081;-79
2023/02/09 13:10:49;;;;;;;18.77;10.17;;;9.50;54.30;;;;;;5094719;28;20031;-79